sensor_id;sensor_type;location;lat;lon;timestamp;P1;durP1;ratioP1;P2;durP2;ratioP2
46875;SDS011;32866;50.160;14.768;2022-09-09T00:00:38;4.63;;;1.92;;
46875;SDS011;32866;50.160;14.768;2022-09-09T00:03:19;1.70;;;1.60;;
46875;SDS011;32866;50.160;14.768;2022-09-09T00:08:38;2.33;;;1.63;;
46875;SDS011;32866;50.160;14.768;2022-09-09T00:11:26;2.08;;;1.55;;
46875;SDS011;32866;50.160;14.768;2022-09-09T00:13:58;2.10;;;1.70;;
46875;SDS011;32866;50.160;14.768;2022-09-09T00:16:28;2.35;;;1.80;;
46875;SDS011;32866;50.160;14.768;2022-09-09T00:19:05;1.90;;;1.80;;
46875;SDS011;32866;50.160;14.768;2022-09-09T00:21:36;3.22;;;1.38;;
46875;SDS011;32866;50.160;14.768;2022-09-09T00:25:08;4.10;;;1.77;;
46875;SDS011;32866;50.160;14.768;2022-09-09T00:27:08;6.20;;;2.40;;
46875;SDS011;32866;50.160;14.768;2022-09-09T00:30:40;2.45;;;1.45;;
46875;SDS011;32866;50.160;14.768;2022-09-09T00:32:48;3.92;;;1.20;;
46875;SDS011;32866;50.160;14.768;2022-09-09T00:35:34;5.63;;;1.60;;
46875;SDS011;32866;50.160;14.768;2022-09-09T00:38:12;2.70;;;1.25;;
46875;SDS011;32866;50.160;14.768;2022-09-09T00:41:22;1.90;;;1.70;;
46875;SDS011;32866;50.160;14.768;2022-09-09T00:43:37;1.38;;;1.27;;
46875;SDS011;32866;50.160;14.768;2022-09-09T00:51:44;3.45;;;1.40;;
46875;SDS011;32866;50.160;14.768;2022-09-09T00:54:27;4.10;;;1.58;;
46875;SDS011;32866;50.160;14.768;2022-09-09T01:08:39;2.05;;;1.85;;
46875;SDS011;32866;50.160;14.768;2022-09-09T01:11:09;2.15;;;1.63;;
46875;SDS011;32866;50.160;14.768;2022-09-09T01:13:41;1.98;;;1.60;;
46875;SDS011;32866;50.160;14.768;2022-09-09T01:16:07;2.30;;;1.30;;
46875;SDS011;32866;50.160;14.768;2022-09-09T01:18:43;1.92;;;1.58;;
46875;SDS011;32866;50.160;14.768;2022-09-09T01:24:23;1.73;;;1.60;;
46875;SDS011;32866;50.160;14.768;2022-09-09T01:26:56;1.83;;;1.73;;
46875;SDS011;32866;50.160;14.768;2022-09-09T01:29:25;1.58;;;1.40;;
46875;SDS011;32866;50.160;14.768;2022-09-09T01:34:19;1.70;;;1.45;;
46875;SDS011;32866;50.160;14.768;2022-09-09T01:36:59;1.70;;;1.60;;
46875;SDS011;32866;50.160;14.768;2022-09-09T01:39:29;1.58;;;1.48;;
46875;SDS011;32866;50.160;14.768;2022-09-09T01:41:56;1.80;;;1.70;;
46875;SDS011;32866;50.160;14.768;2022-09-09T01:44:22;2.95;;;1.50;;
46875;SDS011;32866;50.160;14.768;2022-09-09T01:46:47;6.82;;;2.53;;
46875;SDS011;32866;50.160;14.768;2022-09-09T01:49:13;1.58;;;1.40;;
46875;SDS011;32866;50.160;14.768;2022-09-09T01:54:05;1.70;;;1.60;;
46875;SDS011;32866;50.160;14.768;2022-09-09T02:00:08;2.53;;;2.17;;
46875;SDS011;32866;50.160;14.768;2022-09-09T02:02:53;3.72;;;1.58;;
46875;SDS011;32866;50.160;14.768;2022-09-09T02:08:11;1.98;;;1.50;;
46875;SDS011;32866;50.160;14.768;2022-09-09T02:10:50;2.85;;;1.80;;
46875;SDS011;32866;50.160;14.768;2022-09-09T02:13:21;2.17;;;1.70;;
46875;SDS011;32866;50.160;14.768;2022-09-09T02:15:52;3.22;;;1.83;;
46875;SDS011;32866;50.160;14.768;2022-09-09T02:18:27;1.50;;;1.40;;
46875;SDS011;32866;50.160;14.768;2022-09-09T02:20:57;2.00;;;1.80;;
46875;SDS011;32866;50.160;14.768;2022-09-09T02:23:24;2.08;;;1.10;;
46875;SDS011;32866;50.160;14.768;2022-09-09T02:28:16;2.13;;;1.83;;
46875;SDS011;32866;50.160;14.768;2022-09-09T02:30:46;1.58;;;1.48;;
46875;SDS011;32866;50.160;14.768;2022-09-09T02:33:21;3.25;;;2.10;;
46875;SDS011;32866;50.160;14.768;2022-09-09T02:35:50;2.22;;;2.00;;
46875;SDS011;32866;50.160;14.768;2022-09-09T02:38:17;4.47;;;1.90;;
46875;SDS011;32866;50.160;14.768;2022-09-09T02:40:46;6.22;;;2.25;;
46875;SDS011;32866;50.160;14.768;2022-09-09T02:43:13;3.10;;;2.08;;
46875;SDS011;32866;50.160;14.768;2022-09-09T02:45:42;2.15;;;1.90;;
46875;SDS011;32866;50.160;14.768;2022-09-09T02:48:22;3.97;;;2.00;;
46875;SDS011;32866;50.160;14.768;2022-09-09T02:50:54;2.92;;;2.00;;
46875;SDS011;32866;50.160;14.768;2022-09-09T02:56:43;2.00;;;1.73;;
46875;SDS011;32866;50.160;14.768;2022-09-09T02:59:14;2.33;;;2.10;;
46875;SDS011;32866;50.160;14.768;2022-09-09T03:01:40;2.85;;;2.25;;
46875;SDS011;32866;50.160;14.768;2022-09-09T03:04:06;3.22;;;2.30;;
46875;SDS011;32866;50.160;14.768;2022-09-09T03:06:31;3.95;;;1.80;;
46875;SDS011;32866;50.160;14.768;2022-09-09T03:08:57;2.88;;;2.22;;
46875;SDS011;32866;50.160;14.768;2022-09-09T03:11:23;2.53;;;2.33;;
46875;SDS011;32866;50.160;14.768;2022-09-09T03:13:49;2.25;;;1.98;;
46875;SDS011;32866;50.160;14.768;2022-09-09T03:18:40;4.20;;;2.10;;
46875;SDS011;32866;50.160;14.768;2022-09-09T03:21:05;3.10;;;2.45;;
46875;SDS011;32866;50.160;14.768;2022-09-09T03:23:31;3.60;;;2.08;;
46875;SDS011;32866;50.160;14.768;2022-09-09T03:25:57;3.35;;;2.20;;
46875;SDS011;32866;50.160;14.768;2022-09-09T03:28:23;3.67;;;2.38;;
46875;SDS011;32866;50.160;14.768;2022-09-09T03:30:57;2.72;;;2.33;;
46875;SDS011;32866;50.160;14.768;2022-09-09T03:33:23;2.67;;;2.22;;
46875;SDS011;32866;50.160;14.768;2022-09-09T03:35:48;3.03;;;2.30;;
46875;SDS011;32866;50.160;14.768;2022-09-09T03:38:14;3.95;;;2.33;;
46875;SDS011;32866;50.160;14.768;2022-09-09T03:40:39;3.67;;;2.47;;
46875;SDS011;32866;50.160;14.768;2022-09-09T03:43:13;3.55;;;2.38;;
46875;SDS011;32866;50.160;14.768;2022-09-09T03:45:44;2.60;;;2.15;;
46875;SDS011;32866;50.160;14.768;2022-09-09T03:48:12;6.93;;;2.50;;
46875;SDS011;32866;50.160;14.768;2022-09-09T03:50:37;5.30;;;2.45;;
46875;SDS011;32866;50.160;14.768;2022-09-09T03:53:02;3.47;;;2.22;;
46875;SDS011;32866;50.160;14.768;2022-09-09T03:55:28;2.20;;;2.00;;
46875;SDS011;32866;50.160;14.768;2022-09-09T04:00:18;2.47;;;2.15;;
46875;SDS011;32866;50.160;14.768;2022-09-09T04:02:44;5.28;;;2.53;;
46875;SDS011;32866;50.160;14.768;2022-09-09T04:07:36;2.60;;;1.80;;
46875;SDS011;32866;50.160;14.768;2022-09-09T04:10:01;3.05;;;2.42;;
46875;SDS011;32866;50.160;14.768;2022-09-09T04:12:27;3.13;;;2.25;;
46875;SDS011;32866;50.160;14.768;2022-09-09T04:14:52;3.42;;;2.65;;
46875;SDS011;32866;50.160;14.768;2022-09-09T04:17:17;2.88;;;2.65;;
46875;SDS011;32866;50.160;14.768;2022-09-09T04:19:43;5.45;;;2.90;;
46875;SDS011;32866;50.160;14.768;2022-09-09T04:22:08;3.22;;;2.92;;
46875;SDS011;32866;50.160;14.768;2022-09-09T04:24:34;3.05;;;2.70;;
46875;SDS011;32866;50.160;14.768;2022-09-09T04:27:00;2.92;;;2.60;;
46875;SDS011;32866;50.160;14.768;2022-09-09T04:29:25;3.47;;;2.70;;
46875;SDS011;32866;50.160;14.768;2022-09-09T04:31:51;5.50;;;2.92;;
46875;SDS011;32866;50.160;14.768;2022-09-09T04:34:16;3.78;;;2.95;;
46875;SDS011;32866;50.160;14.768;2022-09-09T04:36:42;3.03;;;2.72;;
46875;SDS011;32866;50.160;14.768;2022-09-09T04:39:07;3.97;;;3.25;;
46875;SDS011;32866;50.160;14.768;2022-09-09T04:41:33;3.58;;;3.28;;
46875;SDS011;32866;50.160;14.768;2022-09-09T04:43:58;3.97;;;3.42;;
46875;SDS011;32866;50.160;14.768;2022-09-09T04:46:25;3.55;;;3.22;;
46875;SDS011;32866;50.160;14.768;2022-09-09T04:48:51;4.35;;;3.70;;
46875;SDS011;32866;50.160;14.768;2022-09-09T04:51:17;4.20;;;3.60;;
46875;SDS011;32866;50.160;14.768;2022-09-09T04:53:43;5.47;;;3.95;;
46875;SDS011;32866;50.160;14.768;2022-09-09T04:56:09;4.40;;;3.47;;
46875;SDS011;32866;50.160;14.768;2022-09-09T04:58:36;5.90;;;4.53;;
46875;SDS011;32866;50.160;14.768;2022-09-09T05:01:09;8.75;;;4.47;;
46875;SDS011;32866;50.160;14.768;2022-09-09T05:03:36;6.85;;;4.47;;
46875;SDS011;32866;50.160;14.768;2022-09-09T05:08:29;5.53;;;5.00;;
46875;SDS011;32866;50.160;14.768;2022-09-09T05:10:54;9.90;;;5.80;;
46875;SDS011;32866;50.160;14.768;2022-09-09T05:13:20;5.95;;;4.97;;
46875;SDS011;32866;50.160;14.768;2022-09-09T05:15:51;5.93;;;5.32;;
46875;SDS011;32866;50.160;14.768;2022-09-09T05:18:17;7.05;;;5.90;;
46875;SDS011;32866;50.160;14.768;2022-09-09T05:20:43;6.68;;;5.97;;
46875;SDS011;32866;50.160;14.768;2022-09-09T05:23:08;8.32;;;5.97;;
46875;SDS011;32866;50.160;14.768;2022-09-09T05:25:36;7.18;;;5.75;;
46875;SDS011;32866;50.160;14.768;2022-09-09T05:28:01;11.70;;;6.65;;
46875;SDS011;32866;50.160;14.768;2022-09-09T05:30:27;11.98;;;6.10;;
46875;SDS011;32866;50.160;14.768;2022-09-09T05:35:20;6.55;;;4.75;;
46875;SDS011;32866;50.160;14.768;2022-09-09T05:37:45;6.70;;;5.25;;
46875;SDS011;32866;50.160;14.768;2022-09-09T05:40:11;8.75;;;5.00;;
46875;SDS011;32866;50.160;14.768;2022-09-09T05:42:37;6.68;;;5.47;;
46875;SDS011;32866;50.160;14.768;2022-09-09T05:45:03;8.45;;;4.75;;
46875;SDS011;32866;50.160;14.768;2022-09-09T05:47:29;5.70;;;5.07;;
46875;SDS011;32866;50.160;14.768;2022-09-09T05:49:55;6.35;;;5.00;;
46875;SDS011;32866;50.160;14.768;2022-09-09T05:54:45;5.72;;;4.40;;
46875;SDS011;32866;50.160;14.768;2022-09-09T05:59:42;6.38;;;4.72;;
46875;SDS011;32866;50.160;14.768;2022-09-09T06:02:08;8.73;;;4.45;;
46875;SDS011;32866;50.160;14.768;2022-09-09T06:04:34;4.50;;;4.10;;
46875;SDS011;32866;50.160;14.768;2022-09-09T06:06:59;4.82;;;3.95;;
46875;SDS011;32866;50.160;14.768;2022-09-09T06:09:25;4.45;;;3.58;;
46875;SDS011;32866;50.160;14.768;2022-09-09T06:11:50;7.22;;;5.53;;
46875;SDS011;32866;50.160;14.768;2022-09-09T06:14:16;4.30;;;3.90;;
46875;SDS011;32866;50.160;14.768;2022-09-09T06:16:42;4.05;;;3.65;;
46875;SDS011;32866;50.160;14.768;2022-09-09T06:19:09;5.43;;;4.20;;
46875;SDS011;32866;50.160;14.768;2022-09-09T06:24:02;5.65;;;3.97;;
46875;SDS011;32866;50.160;14.768;2022-09-09T06:26:29;4.53;;;3.95;;
46875;SDS011;32866;50.160;14.768;2022-09-09T06:28:56;4.93;;;4.43;;
46875;SDS011;32866;50.160;14.768;2022-09-09T06:31:24;3.85;;;3.45;;
46875;SDS011;32866;50.160;14.768;2022-09-09T06:33:51;5.03;;;4.53;;
46875;SDS011;32866;50.160;14.768;2022-09-09T06:36:21;4.55;;;3.53;;
46875;SDS011;32866;50.160;14.768;2022-09-09T06:38:48;4.70;;;4.15;;
46875;SDS011;32866;50.160;14.768;2022-09-09T06:41:15;4.72;;;4.22;;
46875;SDS011;32866;50.160;14.768;2022-09-09T06:43:43;6.57;;;4.25;;
46875;SDS011;32866;50.160;14.768;2022-09-09T06:48:42;4.30;;;3.90;;
46875;SDS011;32866;50.160;14.768;2022-09-09T06:51:16;6.22;;;4.13;;
46875;SDS011;32866;50.160;14.768;2022-09-09T06:53:52;5.00;;;4.50;;
46875;SDS011;32866;50.160;14.768;2022-09-09T06:56:20;8.38;;;4.10;;
46875;SDS011;32866;50.160;14.768;2022-09-09T06:58:48;4.03;;;3.47;;
46875;SDS011;32866;50.160;14.768;2022-09-09T07:01:16;5.78;;;4.05;;
46875;SDS011;32866;50.160;14.768;2022-09-09T07:03:42;5.95;;;4.40;;
46875;SDS011;32866;50.160;14.768;2022-09-09T07:06:15;4.18;;;3.58;;
46875;SDS011;32866;50.160;14.768;2022-09-09T07:08:49;5.70;;;3.60;;
46875;SDS011;32866;50.160;14.768;2022-09-09T07:11:15;3.47;;;3.17;;
46875;SDS011;32866;50.160;14.768;2022-09-09T07:16:08;3.33;;;2.90;;
46875;SDS011;32866;50.160;14.768;2022-09-09T07:18:37;5.82;;;3.72;;
46875;SDS011;32866;50.160;14.768;2022-09-09T07:21:04;3.97;;;3.55;;
46875;SDS011;32866;50.160;14.768;2022-09-09T07:25:56;3.60;;;2.97;;
46875;SDS011;32866;50.160;14.768;2022-09-09T07:28:23;5.57;;;3.53;;
46875;SDS011;32866;50.160;14.768;2022-09-09T07:33:25;2.40;;;2.20;;
46875;SDS011;32866;50.160;14.768;2022-09-09T07:35:51;2.53;;;2.33;;
46875;SDS011;32866;50.160;14.768;2022-09-09T07:38:17;4.75;;;2.65;;
46875;SDS011;32866;50.160;14.768;2022-09-09T07:40:43;4.10;;;2.55;;
46875;SDS011;32866;50.160;14.768;2022-09-09T07:45:34;6.93;;;6.00;;
46875;SDS011;32866;50.160;14.768;2022-09-09T07:48:00;6.40;;;5.80;;
46875;SDS011;32866;50.160;14.768;2022-09-09T07:50:26;6.47;;;5.00;;
46875;SDS011;32866;50.160;14.768;2022-09-09T07:52:52;4.72;;;4.32;;
46875;SDS011;32866;50.160;14.768;2022-09-09T07:55:18;9.18;;;3.85;;
46875;SDS011;32866;50.160;14.768;2022-09-09T07:57:44;3.50;;;2.83;;
46875;SDS011;32866;50.160;14.768;2022-09-09T08:02:35;2.65;;;2.42;;
46875;SDS011;32866;50.160;14.768;2022-09-09T08:05:01;3.90;;;2.00;;
46875;SDS011;32866;50.160;14.768;2022-09-09T08:07:26;3.90;;;2.25;;
46875;SDS011;32866;50.160;14.768;2022-09-09T08:09:52;2.85;;;2.42;;
46875;SDS011;32866;50.160;14.768;2022-09-09T08:12:19;5.90;;;2.05;;
46875;SDS011;32866;50.160;14.768;2022-09-09T08:14:44;3.85;;;2.42;;
46875;SDS011;32866;50.160;14.768;2022-09-09T08:17:10;2.58;;;2.38;;
46875;SDS011;32866;50.160;14.768;2022-09-09T08:19:35;1.80;;;1.60;;
46875;SDS011;32866;50.160;14.768;2022-09-09T08:22:01;3.72;;;2.60;;
46875;SDS011;32866;50.160;14.768;2022-09-09T08:24:27;2.90;;;2.08;;
46875;SDS011;32866;50.160;14.768;2022-09-09T08:29:18;3.88;;;1.85;;
46875;SDS011;32866;50.160;14.768;2022-09-09T08:31:45;3.53;;;1.92;;
46875;SDS011;32866;50.160;14.768;2022-09-09T08:34:12;3.88;;;2.15;;
46875;SDS011;32866;50.160;14.768;2022-09-09T08:39:07;2.15;;;1.90;;
46875;SDS011;32866;50.160;14.768;2022-09-09T08:41:46;1.90;;;1.75;;
46875;SDS011;32866;50.160;14.768;2022-09-09T08:52:00;2.72;;;2.47;;
46875;SDS011;32866;50.160;14.768;2022-09-09T08:54:28;2.88;;;2.40;;
46875;SDS011;32866;50.160;14.768;2022-09-09T08:56:58;2.47;;;2.20;;
46875;SDS011;32866;50.160;14.768;2022-09-09T09:07:05;4.15;;;1.83;;
46875;SDS011;32866;50.160;14.768;2022-09-09T09:12:25;1.85;;;1.67;;
46875;SDS011;32866;50.160;14.768;2022-09-09T09:14:53;5.68;;;2.38;;
46875;SDS011;32866;50.160;14.768;2022-09-09T09:17:21;2.80;;;2.10;;
46875;SDS011;32866;50.160;14.768;2022-09-09T09:19:50;2.85;;;2.50;;
46875;SDS011;32866;50.160;14.768;2022-09-09T09:27:40;1.65;;;1.55;;
46875;SDS011;32866;50.160;14.768;2022-09-09T09:30:17;2.60;;;2.40;;
46875;SDS011;32866;50.160;14.768;2022-09-09T09:32:53;2.83;;;1.95;;
46875;SDS011;32866;50.160;14.768;2022-09-09T09:35:23;3.03;;;1.98;;
46875;SDS011;32866;50.160;14.768;2022-09-09T09:37:49;1.95;;;1.77;;
46875;SDS011;32866;50.160;14.768;2022-09-09T09:40:16;2.05;;;1.77;;
46875;SDS011;32866;50.160;14.768;2022-09-09T09:43:01;2.05;;;1.63;;
46875;SDS011;32866;50.160;14.768;2022-09-09T09:48:00;3.88;;;1.98;;
46875;SDS011;32866;50.160;14.768;2022-09-09T09:50:27;3.35;;;2.00;;
46875;SDS011;32866;50.160;14.768;2022-09-09T09:52:54;2.35;;;1.55;;
46875;SDS011;32866;50.160;14.768;2022-09-09T09:55:31;3.08;;;2.00;;
46875;SDS011;32866;50.160;14.768;2022-09-09T09:58:04;2.67;;;1.90;;
46875;SDS011;32866;50.160;14.768;2022-09-09T10:00:31;5.10;;;2.70;;
46875;SDS011;32866;50.160;14.768;2022-09-09T10:02:59;1.85;;;1.70;;
46875;SDS011;32866;50.160;14.768;2022-09-09T10:05:26;4.25;;;1.88;;
46875;SDS011;32866;50.160;14.768;2022-09-09T10:19:20;1.25;;;1.15;;
46875;SDS011;32866;50.160;14.768;2022-09-09T10:27:06;1.55;;;1.30;;
46875;SDS011;32866;50.160;14.768;2022-09-09T10:32:16;2.38;;;1.25;;
46875;SDS011;32866;50.160;14.768;2022-09-09T10:40:05;1.35;;;1.23;;
46875;SDS011;32866;50.160;14.768;2022-09-09T10:42:50;1.80;;;1.50;;
46875;SDS011;32866;50.160;14.768;2022-09-09T10:45:18;1.70;;;1.20;;
46875;SDS011;32866;50.160;14.768;2022-09-09T10:50:43;3.97;;;1.30;;
46875;SDS011;32866;50.160;14.768;2022-09-09T10:56:12;3.70;;;1.45;;
46875;SDS011;32866;50.160;14.768;2022-09-09T10:58:43;1.23;;;1.13;;
46875;SDS011;32866;50.160;14.768;2022-09-09T11:01:15;4.05;;;1.25;;
46875;SDS011;32866;50.160;14.768;2022-09-09T11:03:47;2.45;;;1.08;;
46875;SDS011;32866;50.160;14.768;2022-09-09T11:06:21;2.85;;;1.60;;
46875;SDS011;32866;50.160;14.768;2022-09-09T11:08:53;1.83;;;1.20;;
46875;SDS011;32866;50.160;14.768;2022-09-09T11:11:35;4.75;;;1.15;;
46875;SDS011;32866;50.160;14.768;2022-09-09T11:14:14;5.03;;;1.48;;
46875;SDS011;32866;50.160;14.768;2022-09-09T11:16:49;1.60;;;0.90;;
46875;SDS011;32866;50.160;14.768;2022-09-09T11:21:52;1.65;;;0.82;;
46875;SDS011;32866;50.160;14.768;2022-09-09T11:24:22;2.78;;;0.93;;
46875;SDS011;32866;50.160;14.768;2022-09-09T11:26:54;1.15;;;0.77;;
46875;SDS011;32866;50.160;14.768;2022-09-09T11:32:43;1.20;;;0.70;;
46875;SDS011;32866;50.160;14.768;2022-09-09T11:37:57;3.00;;;0.90;;
46875;SDS011;32866;50.160;14.768;2022-09-09T11:40:30;1.08;;;0.60;;
46875;SDS011;32866;50.160;14.768;2022-09-09T11:43:00;2.28;;;0.93;;
46875;SDS011;32866;50.160;14.768;2022-09-09T11:45:40;1.70;;;0.70;;
46875;SDS011;32866;50.160;14.768;2022-09-09T11:48:22;2.92;;;0.50;;
46875;SDS011;32866;50.160;14.768;2022-09-09T11:51:05;1.40;;;0.70;;
46875;SDS011;32866;50.160;14.768;2022-09-09T11:53:47;1.38;;;0.47;;
46875;SDS011;32866;50.160;14.768;2022-09-09T11:56:50;1.27;;;0.75;;
46875;SDS011;32866;50.160;14.768;2022-09-09T11:59:19;4.40;;;1.10;;
46875;SDS011;32866;50.160;14.768;2022-09-09T12:01:56;0.30;;;0.30;;
46875;SDS011;32866;50.160;14.768;2022-09-09T12:04:40;0.60;;;0.60;;
46875;SDS011;32866;50.160;14.768;2022-09-09T12:12:32;1.13;;;0.63;;
46875;SDS011;32866;50.160;14.768;2022-09-09T12:15:03;3.22;;;0.77;;
46875;SDS011;32866;50.160;14.768;2022-09-09T12:17:47;0.57;;;0.40;;
46875;SDS011;32866;50.160;14.768;2022-09-09T12:25:55;4.93;;;0.90;;
46875;SDS011;32866;50.160;14.768;2022-09-09T12:34:09;2.03;;;0.90;;
46875;SDS011;32866;50.160;14.768;2022-09-09T12:36:54;1.25;;;0.43;;
46875;SDS011;32866;50.160;14.768;2022-09-09T12:39:32;1.83;;;0.88;;
46875;SDS011;32866;50.160;14.768;2022-09-09T12:42:02;1.95;;;0.80;;
46875;SDS011;32866;50.160;14.768;2022-09-09T12:44:28;2.00;;;1.15;;
46875;SDS011;32866;50.160;14.768;2022-09-09T12:46:54;1.40;;;0.68;;
46875;SDS011;32866;50.160;14.768;2022-09-09T12:52:01;4.80;;;1.10;;
46875;SDS011;32866;50.160;14.768;2022-09-09T12:54:30;3.55;;;1.40;;
46875;SDS011;32866;50.160;14.768;2022-09-09T12:56:56;2.03;;;0.90;;
46875;SDS011;32866;50.160;14.768;2022-09-09T12:59:26;3.25;;;0.93;;
46875;SDS011;32866;50.160;14.768;2022-09-09T13:02:01;1.17;;;1.00;;
46875;SDS011;32866;50.160;14.768;2022-09-09T13:04:36;3.92;;;1.23;;
46875;SDS011;32866;50.160;14.768;2022-09-09T13:07:05;4.05;;;1.27;;
46875;SDS011;32866;50.160;14.768;2022-09-09T13:09:31;3.15;;;1.38;;
46875;SDS011;32866;50.160;14.768;2022-09-09T13:11:57;3.50;;;1.27;;
46875;SDS011;32866;50.160;14.768;2022-09-09T13:14:30;3.47;;;1.23;;
46875;SDS011;32866;50.160;14.768;2022-09-09T13:17:00;4.43;;;1.33;;
46875;SDS011;32866;50.160;14.768;2022-09-09T13:19:29;4.00;;;1.40;;
46875;SDS011;32866;50.160;14.768;2022-09-09T13:21:58;2.40;;;1.23;;
46875;SDS011;32866;50.160;14.768;2022-09-09T13:26:57;1.15;;;0.90;;
46875;SDS011;32866;50.160;14.768;2022-09-09T13:29:29;4.35;;;1.48;;
46875;SDS011;32866;50.160;14.768;2022-09-09T13:34:55;5.18;;;1.27;;
46875;SDS011;32866;50.160;14.768;2022-09-09T13:37:39;2.15;;;1.05;;
46875;SDS011;32866;50.160;14.768;2022-09-09T13:40:06;2.63;;;1.90;;
46875;SDS011;32866;50.160;14.768;2022-09-09T13:42:42;3.92;;;1.42;;
46875;SDS011;32866;50.160;14.768;2022-09-09T13:47:53;4.00;;;1.40;;
46875;SDS011;32866;50.160;14.768;2022-09-09T13:50:27;0.80;;;0.80;;
46875;SDS011;32866;50.160;14.768;2022-09-09T13:52:55;1.08;;;0.60;;
46875;SDS011;32866;50.160;14.768;2022-09-09T13:58:00;1.30;;;0.82;;
46875;SDS011;32866;50.160;14.768;2022-09-09T14:00:31;2.22;;;0.50;;
46875;SDS011;32866;50.160;14.768;2022-09-09T14:02:58;1.42;;;0.60;;
46875;SDS011;32866;50.160;14.768;2022-09-09T14:05:26;1.23;;;0.60;;
46875;SDS011;32866;50.160;14.768;2022-09-09T14:10:17;1.75;;;0.70;;
46875;SDS011;32866;50.160;14.768;2022-09-09T14:15:09;0.88;;;0.45;;
46875;SDS011;32866;50.160;14.768;2022-09-09T14:17:35;0.60;;;0.55;;
46875;SDS011;32866;50.160;14.768;2022-09-09T14:22:26;0.73;;;0.50;;
46875;SDS011;32866;50.160;14.768;2022-09-09T14:24:53;1.27;;;0.68;;
46875;SDS011;32866;50.160;14.768;2022-09-09T14:29:44;1.15;;;0.50;;
46875;SDS011;32866;50.160;14.768;2022-09-09T14:32:10;1.02;;;0.65;;
46875;SDS011;32866;50.160;14.768;2022-09-09T14:34:35;2.03;;;0.60;;
46875;SDS011;32866;50.160;14.768;2022-09-09T14:39:29;1.42;;;0.47;;
46875;SDS011;32866;50.160;14.768;2022-09-09T14:44:20;1.17;;;0.80;;
46875;SDS011;32866;50.160;14.768;2022-09-09T14:46:45;0.40;;;0.40;;
46875;SDS011;32866;50.160;14.768;2022-09-09T14:51:37;1.17;;;0.60;;
46875;SDS011;32866;50.160;14.768;2022-09-09T14:54:03;0.55;;;0.50;;
46875;SDS011;32866;50.160;14.768;2022-09-09T14:58:56;1.98;;;0.95;;
46875;SDS011;32866;50.160;14.768;2022-09-09T15:01:23;1.48;;;0.90;;
46875;SDS011;32866;50.160;14.768;2022-09-09T15:03:55;2.08;;;0.70;;
46875;SDS011;32866;50.160;14.768;2022-09-09T15:06:23;3.05;;;0.75;;
46875;SDS011;32866;50.160;14.768;2022-09-09T15:08:49;1.55;;;0.68;;
46875;SDS011;32866;50.160;14.768;2022-09-09T15:11:17;0.68;;;0.60;;
46875;SDS011;32866;50.160;14.768;2022-09-09T15:16:15;0.60;;;0.60;;
46875;SDS011;32866;50.160;14.768;2022-09-09T15:18:42;0.70;;;0.50;;
46875;SDS011;32866;50.160;14.768;2022-09-09T15:21:14;0.30;;;0.30;;
46875;SDS011;32866;50.160;14.768;2022-09-09T15:23:41;0.47;;;0.47;;
46875;SDS011;32866;50.160;14.768;2022-09-09T15:26:08;1.30;;;1.20;;
46875;SDS011;32866;50.160;14.768;2022-09-09T15:28:34;1.38;;;1.13;;
46875;SDS011;32866;50.160;14.768;2022-09-09T15:31:05;0.70;;;0.70;;
46875;SDS011;32866;50.160;14.768;2022-09-09T15:33:33;0.50;;;0.40;;
46875;SDS011;32866;50.160;14.768;2022-09-09T15:36:11;3.75;;;0.70;;
46875;SDS011;32866;50.160;14.768;2022-09-09T15:38:37;0.63;;;0.52;;
46875;SDS011;32866;50.160;14.768;2022-09-09T15:41:03;0.60;;;0.60;;
46875;SDS011;32866;50.160;14.768;2022-09-09T15:45:54;2.22;;;0.80;;
46875;SDS011;32866;50.160;14.768;2022-09-09T15:48:29;0.50;;;0.50;;
46875;SDS011;32866;50.160;14.768;2022-09-09T15:51:03;0.95;;;0.70;;
46875;SDS011;32866;50.160;14.768;2022-09-09T15:53:29;1.40;;;0.80;;
46875;SDS011;32866;50.160;14.768;2022-09-09T15:55:57;7.68;;;1.00;;
46875;SDS011;32866;50.160;14.768;2022-09-09T15:58:23;1.08;;;0.65;;
46875;SDS011;32866;50.160;14.768;2022-09-09T16:03:13;0.73;;;0.73;;
46875;SDS011;32866;50.160;14.768;2022-09-09T16:05:39;0.80;;;0.75;;
46875;SDS011;32866;50.160;14.768;2022-09-09T16:10:30;1.17;;;1.05;;
46875;SDS011;32866;50.160;14.768;2022-09-09T16:15:21;0.70;;;0.70;;
46875;SDS011;32866;50.160;14.768;2022-09-09T16:17:48;2.03;;;0.75;;
46875;SDS011;32866;50.160;14.768;2022-09-09T16:22:39;2.05;;;0.90;;
46875;SDS011;32866;50.160;14.768;2022-09-09T16:27:30;1.00;;;0.90;;
46875;SDS011;32866;50.160;14.768;2022-09-09T16:29:56;1.58;;;1.08;;
46875;SDS011;32866;50.160;14.768;2022-09-09T16:32:22;1.45;;;0.70;;
46875;SDS011;32866;50.160;14.768;2022-09-09T16:37:12;0.90;;;0.75;;
46875;SDS011;32866;50.160;14.768;2022-09-09T16:39:38;0.80;;;0.80;;
46875;SDS011;32866;50.160;14.768;2022-09-09T16:42:03;2.80;;;0.80;;
46875;SDS011;32866;50.160;14.768;2022-09-09T16:44:29;1.75;;;1.20;;
46875;SDS011;32866;50.160;14.768;2022-09-09T16:49:20;1.58;;;1.10;;
46875;SDS011;32866;50.160;14.768;2022-09-09T16:51:46;1.48;;;1.13;;
46875;SDS011;32866;50.160;14.768;2022-09-09T16:54:14;1.30;;;0.90;;
46875;SDS011;32866;50.160;14.768;2022-09-09T16:56:42;2.47;;;0.98;;
46875;SDS011;32866;50.160;14.768;2022-09-09T16:59:09;1.35;;;1.00;;
46875;SDS011;32866;50.160;14.768;2022-09-09T17:01:37;2.22;;;1.20;;
46875;SDS011;32866;50.160;14.768;2022-09-09T17:04:06;2.90;;;1.05;;
46875;SDS011;32866;50.160;14.768;2022-09-09T17:06:33;4.18;;;1.45;;
46875;SDS011;32866;50.160;14.768;2022-09-09T17:09:00;2.25;;;1.33;;
46875;SDS011;32866;50.160;14.768;2022-09-09T17:11:27;1.42;;;1.30;;
46875;SDS011;32866;50.160;14.768;2022-09-09T17:13:54;3.67;;;1.48;;
46875;SDS011;32866;50.160;14.768;2022-09-09T17:16:21;3.50;;;1.52;;
46875;SDS011;32866;50.160;14.768;2022-09-09T17:18:49;3.08;;;1.60;;
46875;SDS011;32866;50.160;14.768;2022-09-09T17:21:16;2.67;;;1.30;;
46875;SDS011;32866;50.160;14.768;2022-09-09T17:23:43;4.05;;;1.80;;
46875;SDS011;32866;50.160;14.768;2022-09-09T17:26:11;2.33;;;1.48;;
46875;SDS011;32866;50.160;14.768;2022-09-09T17:28:38;2.15;;;1.60;;
46875;SDS011;32866;50.160;14.768;2022-09-09T17:31:05;6.72;;;3.33;;
46875;SDS011;32866;50.160;14.768;2022-09-09T17:33:32;3.20;;;1.38;;
46875;SDS011;32866;50.160;14.768;2022-09-09T17:36:07;3.10;;;1.70;;
46875;SDS011;32866;50.160;14.768;2022-09-09T17:38:38;3.67;;;1.55;;
46875;SDS011;32866;50.160;14.768;2022-09-09T17:43:48;2.65;;;1.63;;
46875;SDS011;32866;50.160;14.768;2022-09-09T17:48:46;3.40;;;3.10;;
46875;SDS011;32866;50.160;14.768;2022-09-09T17:53:39;2.65;;;1.95;;
46875;SDS011;32866;50.160;14.768;2022-09-09T17:56:07;2.67;;;1.38;;
46875;SDS011;32866;50.160;14.768;2022-09-09T17:58:34;2.08;;;1.35;;
46875;SDS011;32866;50.160;14.768;2022-09-09T18:03:34;2.55;;;1.48;;
46875;SDS011;32866;50.160;14.768;2022-09-09T18:06:01;4.05;;;1.80;;
46875;SDS011;32866;50.160;14.768;2022-09-09T18:08:28;2.70;;;1.73;;
46875;SDS011;32866;50.160;14.768;2022-09-09T18:13:20;2.53;;;1.83;;
46875;SDS011;32866;50.160;14.768;2022-09-09T18:18:11;4.82;;;1.60;;
46875;SDS011;32866;50.160;14.768;2022-09-09T18:23:01;4.22;;;2.13;;
46875;SDS011;32866;50.160;14.768;2022-09-09T18:27:52;3.70;;;1.80;;
46875;SDS011;32866;50.160;14.768;2022-09-09T18:30:18;3.78;;;2.15;;
46875;SDS011;32866;50.160;14.768;2022-09-09T18:35:09;2.50;;;1.70;;
46875;SDS011;32866;50.160;14.768;2022-09-09T18:40:02;2.33;;;1.60;;
46875;SDS011;32866;50.160;14.768;2022-09-09T18:42:27;6.93;;;1.88;;
46875;SDS011;32866;50.160;14.768;2022-09-09T18:44:54;1.70;;;1.42;;